Time;durP1;ratioP1;P1;durP2;ratioP2;P2;SDS_P1;SDS_P2;PMS_P1;PMS_P2;Temp;Humidity;BMP_temperature;BMP_pressure;BME280_temperature;BME280_humidity;BME280_pressure;Samples;Min_cycle;Max_cycle;Signal;HPM_P1;HPM_P2
2021/04/02 00:00:51;;;;;;;19.88;14.77;;;409.90;1484.80;;;;;;5072088;28;20037;-69
2021/04/02 00:03:21;;;;;;;24.85;15.05;;;410.00;1484.80;;;;;;5068552;28;20029;-68
2021/04/02 00:05:48;;;;;;;28.35;16.55;;;410.00;1484.80;;;;;;5051883;28;20025;-68
2021/04/02 00:08:14;;;;;;;25.92;15.77;;;410.00;1484.80;;;;;;5052399;28;20056;-70
2021/04/02 00:10:45;;;;;;;27.85;17.33;;;410.00;1484.80;;;;;;5033828;28;20037;-68
2021/04/02 00:13:12;;;;;;;27.20;15.52;;;410.00;1484.80;;;;;;5051894;28;20440;-71
2021/04/02 00:15:38;;;;;;;24.88;17.25;;;410.00;1484.80;;;;;;5052040;28;20521;-71
2021/04/02 00:18:06;;;;;;;31.65;17.13;;;410.00;1484.80;;;;;;5051968;28;20029;-70
2021/04/02 00:20:32;;;;;;;27.85;17.67;;;410.00;1484.80;;;;;;5051956;28;20025;-69
2021/04/02 00:22:58;;;;;;;28.90;17.30;;;410.00;1484.80;;;;;;5062296;28;20507;-70
2021/04/02 00:25:24;;;;;;;27.52;17.75;;;409.90;1484.80;;;;;;5072935;28;20500;-70
2021/04/02 00:27:50;;;;;;;29.63;18.90;;;409.90;1484.80;;;;;;5072659;28;20040;-70
2021/04/02 00:30:24;;;;;;;28.42;18.58;;;409.80;1484.80;;;;;;5072828;28;20465;-70
2021/04/02 00:32:50;;;;;;;31.17;18.95;;;409.90;1484.80;;;;;;5072355;28;20020;-70
2021/04/02 00:35:16;;;;;;;30.20;19.73;;;409.90;1510.40;;;;;;5072487;28;20078;-71
2021/04/02 00:37:43;;;;;;;32.25;20.17;;;409.80;1484.80;;;;;;5072404;28;20081;-67
2021/04/02 00:40:23;;;;;;;33.97;20.50;;;409.80;1510.40;;;;;;5072240;28;20024;-67
2021/04/02 00:42:50;;;;;;;33.30;20.75;;;409.80;1484.80;;;;;;5072412;28;20039;-67
2021/04/02 00:45:18;;;;;;;37.50;21.25;;;409.80;1510.40;;;;;;5072124;28;20024;-70
2021/04/02 00:47:49;;;;;;;24.10;17.52;;;409.80;1510.40;;;;;;5072656;28;20042;-71
2021/04/02 00:50:21;;;;;;;29.20;17.80;;;409.80;1484.80;;;;;;5071957;28;20017;-70
2021/04/02 00:52:47;;;;;;;22.77;14.77;;;409.90;1484.80;;;;;;5072569;28;20025;-72
2021/04/02 00:55:13;;;;;;;21.50;15.27;;;409.90;1484.80;;;;;;5072106;28;20025;-70
2021/04/02 00:57:39;;;;;;;33.97;14.48;;;410.00;1484.80;;;;;;5071524;28;20032;-71
2021/04/02 01:00:08;;;;;;;27.40;14.00;;;410.00;1484.80;;;;;;5071765;28;20028;-71
2021/04/02 01:02:34;;;;;;;20.92;11.57;;;410.10;1484.80;;;;;;5074314;28;20067;-69
2021/04/02 01:05:04;;;;;;;20.55;9.68;;;410.10;1484.80;;;;;;5076761;28;20056;-68
2021/04/02 01:07:30;;;;;;;13.02;7.93;;;410.20;1484.80;;;;;;5076638;28;20024;-66
2021/04/02 01:09:56;;;;;;;40.42;8.73;;;410.20;1510.40;;;;;;5076687;28;20016;-69
2021/04/02 01:12:22;;;;;;;11.75;6.60;;;410.30;1510.40;;;;;;5076330;28;20039;-69
2021/04/02 01:14:47;;;;;;;10.50;5.55;;;410.30;1536.00;;;;;;5076631;28;20023;-70
2021/04/02 01:17:13;;;;;;;8.82;4.93;;;410.40;1536.00;;;;;;5076153;28;20417;-70
2021/04/02 01:19:44;;;;;;;13.75;4.40;;;410.40;1536.00;;;;;;5076471;28;20052;-71
2021/04/02 01:22:21;;;;;;;18.45;3.60;;;410.40;1536.00;;;;;;5076113;28;20036;-66
2021/04/02 01:25:09;;;;;;;15.73;3.08;;;410.50;1561.60;;;;;;5076611;28;20024;-66
2021/04/02 01:28:03;;;;;;;12.38;2.95;;;435.20;1561.60;;;;;;5076119;28;20031;-67
2021/04/02 01:30:30;;;;;;;16.80;2.50;;;435.20;1587.20;;;;;;5076413;28;20025;-71
2021/04/02 01:32:58;;;;;;;16.95;2.40;;;410.50;1638.40;;;;;;5076090;28;20051;-66
2021/04/02 01:35:38;;;;;;;12.50;2.70;;;410.50;1664.00;;;;;;5075820;28;20036;-71
2021/04/02 01:38:25;;;;;;;24.92;3.25;;;410.40;1689.60;;;;;;5076141;28;20029;-67
2021/04/02 01:40:55;;;;;;;10.07;2.50;;;410.30;1740.80;;;;;;5075884;28;20121;-70
2021/04/02 01:43:27;;;;;;;6.75;2.67;;;410.30;1740.80;;;;;;5075861;28;20024;-71
2021/04/02 01:45:53;;;;;;;10.25;2.72;;;410.20;1740.80;;;;;;5075906;28;20447;-65
2021/04/02 01:48:21;;;;;;;8.48;2.40;;;410.20;1766.40;;;;;;5058158;28;20373;-69
2021/04/02 01:50:49;;;;;;;6.25;2.08;;;410.00;1792.00;;;;;;5075385;28;20027;-71
2021/04/02 01:53:17;;;;;;;9.25;2.85;;;410.00;1817.60;;;;;;5075879;28;20017;-70
2021/04/02 01:55:44;;;;;;;11.40;2.60;;;409.90;1817.60;;;;;;5075380;28;20021;-70
2021/04/02 01:58:11;;;;;;;11.27;3.20;;;409.80;1817.60;;;;;;5075913;28;20369;-71
2021/04/02 02:00:44;;;;;;;8.15;3.10;;;409.80;1817.60;;;;;;5075259;28;20028;-70
2021/04/02 02:03:11;;;;;;;11.65;2.80;;;409.80;1843.20;;;;;;5075671;28;20045;-68
2021/04/02 02:05:38;;;;;;;9.38;2.60;;;409.80;1843.20;;;;;;5075442;28;20381;-70
2021/04/02 02:08:05;;;;;;;7.38;2.42;;;409.80;1843.20;;;;;;5075516;28;20028;-70
2021/04/02 02:10:32;;;;;;;11.35;2.78;;;409.80;1843.20;;;;;;5075378;28;20024;-70
2021/04/02 02:13:00;;;;;;;12.15;2.80;;;409.90;1817.60;;;;;;5057197;28;20051;-70
2021/04/02 02:15:27;;;;;;;6.47;2.22;;;409.90;1868.80;;;;;;5056604;28;20028;-70
2021/04/02 02:18:00;;;;;;;8.50;1.92;;;410.00;1792.00;;;;;;5075014;28;20020;-66
2021/04/02 02:20:29;;;;;;;9.90;2.30;;;410.10;1766.40;;;;;;5057484;28;20020;-70
2021/04/02 02:22:57;;;;;;;9.57;2.67;;;410.10;1792.00;;;;;;5074762;28;20060;-71
2021/04/02 02:25:25;;;;;;;7.53;2.75;;;410.20;1792.00;;;;;;5075290;28;20373;-67
2021/04/02 02:27:52;;;;;;;8.45;2.88;;;410.20;1792.00;;;;;;5056985;28;20027;-70
2021/04/02 02:30:22;;;;;;;6.05;2.47;;;410.20;1817.60;;;;;;5057139;28;20044;-70
2021/04/02 02:32:49;;;;;;;7.63;2.53;;;410.30;1792.00;;;;;;5074739;28;20029;-72
2021/04/02 02:35:15;;;;;;;7.20;2.53;;;410.30;1792.00;;;;;;5074360;28;20028;-68
2021/04/02 02:37:45;;;;;;;8.35;3.00;;;410.30;1817.60;;;;;;5075166;28;20041;-72
2021/04/02 02:40:22;;;;;;;8.13;2.92;;;410.20;1817.60;;;;;;5074574;28;20023;-70
2021/04/02 02:42:50;;;;;;;8.73;2.92;;;410.20;1843.20;;;;;;5074762;28;20388;-72
2021/04/02 02:45:17;;;;;;;6.00;2.50;;;410.20;1843.20;;;;;;5074093;28;20028;-70
2021/04/02 02:47:42;;;;;;;8.38;2.70;;;410.10;1843.20;;;;;;5074986;28;20028;-72
2021/04/02 02:50:12;;;;;;;7.63;2.58;;;410.10;1843.20;;;;;;5074308;28;20027;-70
2021/04/02 02:52:39;;;;;;;9.57;2.70;;;410.10;1843.20;;;;;;5074656;28;20441;-69
2021/04/02 02:55:07;;;;;;;4.25;1.80;;;410.10;1843.20;;;;;;5074514;28;20028;-71
2021/04/02 02:57:35;;;;;;;7.95;2.70;;;410.10;1817.60;;;;;;5074630;28;20419;-71
2021/04/02 03:00:08;;;;;;;7.40;2.05;;;410.10;1817.60;;;;;;5074485;28;20027;-72
2021/04/02 03:02:35;;;;;;;9.55;2.10;;;410.00;1843.20;;;;;;5074165;28;20036;-66
2021/04/02 03:05:03;;;;;;;7.57;1.98;;;410.00;1817.60;;;;;;5074717;28;20048;-70
2021/04/02 03:07:32;;;;;;;8.95;3.88;;;409.90;1817.60;;;;;;5074344;28;20021;-71
2021/04/02 03:09:59;;;;;;;15.55;5.68;;;409.90;1843.20;;;;;;5074568;28;20020;-70
2021/04/02 03:12:28;;;;;;;13.18;5.53;;;409.90;1843.20;;;;;;5073842;28;20103;-70
2021/04/02 03:14:54;;;;;;;16.67;5.32;;;409.80;1868.80;;;;;;5074457;28;20385;-72
2021/04/02 03:17:22;;;;;;;12.02;4.95;;;409.80;1868.80;;;;;;5073735;28;20036;-70
2021/04/02 03:19:50;;;;;;;9.30;4.82;;;409.80;1868.80;;;;;;5074303;28;20028;-70
2021/04/02 03:22:18;;;;;;;10.30;4.80;;;409.80;1843.20;;;;;;5073613;28;20453;-67
2021/04/02 03:24:46;;;;;;;13.02;4.80;;;409.80;1868.80;;;;;;5055564;28;20167;-70
2021/04/02 03:27:13;;;;;;;13.75;4.68;;;409.80;1894.40;;;;;;5073995;28;20029;-70
2021/04/02 03:29:38;;;;;;;9.30;4.40;;;409.80;1894.40;;;;;;5055676;28;20444;-72
2021/04/02 03:32:09;;;;;;;9.50;3.60;;;409.80;1894.40;;;;;;5073810;28;20056;-71
2021/04/02 03:34:37;;;;;;;11.57;4.05;;;409.80;1868.80;;;;;;5073443;28;20103;-70
2021/04/02 03:37:07;;;;;;;9.27;3.63;;;409.80;1868.80;;;;;;5073575;28;20048;-71
2021/04/02 03:39:34;;;;;;;8.23;3.60;;;409.80;1843.20;;;;;;5073524;28;20066;-65
2021/04/02 03:42:02;;;;;;;11.45;4.10;;;409.80;1868.80;;;;;;5073470;28;20041;-65
2021/04/02 03:44:34;;;;;;;12.27;5.90;;;409.80;1894.40;;;;;;5073588;28;20095;-70
2021/04/02 03:47:03;;;;;;;13.35;6.15;;;409.70;1894.40;;;;;;5073618;28;20105;-71
2021/04/02 03:49:34;;;;;;;26.38;12.60;;;409.70;1920.00;;;;;;5055605;28;20029;-69
2021/04/02 03:52:07;;;;;;;121.93;44.00;;;384.90;1894.40;;;;;;5073350;28;20385;-68
2021/04/02 03:54:36;;;;;;;88.13;34.35;;;384.90;1920.00;;;;;;5073822;28;20016;-71
2021/04/02 03:57:02;;;;;;;193.32;59.67;;;384.90;1894.40;;;;;;5073026;28;20554;-66
2021/04/02 03:59:33;;;;;;;117.05;37.83;;;384.80;1894.40;;;;;;5073577;28;20017;-71
2021/04/02 04:01:58;;;;;;;65.55;25.88;;;384.70;1920.00;;;;;;5073028;28;20519;-71
2021/04/02 04:04:27;;;;;;;55.42;21.88;;;384.70;1945.60;;;;;;5073395;28;20099;-70
2021/04/02 04:06:58;;;;;;;32.95;12.30;;;384.70;1920.00;;;;;;5072973;28;20515;-71
2021/04/02 04:09:28;;;;;;;22.55;8.95;;;384.70;1920.00;;;;;;5073366;28;20020;-71
2021/04/02 04:11:56;;;;;;;18.70;7.78;;;384.80;1920.00;;;;;;5073025;28;20021;-71
2021/04/02 04:14:24;;;;;;;15.35;7.68;;;384.80;1920.00;;;;;;5072757;28;20020;-71
2021/04/02 04:16:51;;;;;;;16.58;6.60;;;384.70;1945.60;;;;;;5073043;28;20107;-71
2021/04/02 04:19:19;;;;;;;15.45;7.15;;;384.70;1920.00;;;;;;5054774;28;20035;-70
2021/04/02 04:21:46;;;;;;;13.57;6.90;;;384.80;1945.60;;;;;;5072802;28;20021;-66
2021/04/02 04:24:17;;;;;;;10.05;6.70;;;384.80;1945.60;;;;;;5072444;28;20027;-70
2021/04/02 04:26:46;;;;;;;14.05;6.60;;;384.70;1945.60;;;;;;5073141;28;20025;-72
2021/04/02 04:29:41;;;;;;;13.60;7.10;;;384.70;1945.60;;;;;;5072446;28;20016;-70
2021/04/02 04:32:10;;;;;;;9.98;6.35;;;384.70;1920.00;;;;;;5070632;28;20028;-71
2021/04/02 04:34:37;;;;;;;13.88;8.05;;;384.70;1920.00;;;;;;5072383;28;20024;-71
2021/04/02 04:37:05;;;;;;;15.88;7.85;;;384.70;1920.00;;;;;;5072314;28;20056;-70
2021/04/02 04:39:32;;;;;;;12.90;7.30;;;384.70;1920.00;;;;;;5072865;28;20571;-72
2021/04/02 04:41:59;;;;;;;13.98;8.82;;;384.70;1945.60;;;;;;5072753;28;20098;-71
2021/04/02 04:44:27;;;;;;;13.15;7.70;;;384.70;1945.60;;;;;;5072710;28;20056;-67
2021/04/02 04:46:53;;;;;;;16.23;7.93;;;384.70;1920.00;;;;;;5072693;28;20020;-70
2021/04/02 04:49:19;;;;;;;13.55;7.20;;;384.70;1920.00;;;;;;5072882;28;20024;-71
2021/04/02 04:51:47;;;;;;;13.95;6.80;;;384.80;1894.40;;;;;;5072484;28;20074;-71
2021/04/02 04:54:16;;;;;;;13.70;6.47;;;384.70;1894.40;;;;;;5072717;28;20024;-66
2021/04/02 04:56:42;;;;;;;12.68;6.50;;;384.70;1894.40;;;;;;5072389;28;20019;-65
2021/04/02 04:59:11;;;;;;;10.27;6.65;;;384.70;1894.40;;;;;;5072691;28;20025;-66
2021/04/02 05:01:44;;;;;;;14.57;6.78;;;384.70;1868.80;;;;;;5072487;28;20060;-70
2021/04/02 05:04:10;;;;;;;13.38;6.38;;;384.70;1868.80;;;;;;5072498;28;20431;-65
2021/04/02 05:06:39;;;;;;;14.65;7.32;;;384.70;1868.80;;;;;;5072631;28;20032;-69
2021/04/02 05:09:06;;;;;;;12.98;6.45;;;384.70;1868.80;;;;;;5054351;28;20025;-71
2021/04/02 05:11:37;;;;;;;18.98;11.20;;;384.80;1868.80;;;;;;5072553;28;20061;-71
2021/04/02 05:14:04;;;;;;;18.30;11.02;;;384.80;1868.80;;;;;;5072268;28;20440;-70
2021/04/02 05:16:32;;;;;;;82.65;67.22;;;384.80;1843.20;;;;;;5072638;28;20512;-71
2021/04/02 05:18:58;;;;;;;39.03;24.40;;;384.80;1843.20;;;;;;5072024;28;20024;-70
2021/04/02 05:21:24;;;;;;;23.23;10.13;;;384.80;1843.20;;;;;;5072369;28;20508;-66
2021/04/02 05:23:52;;;;;;;19.48;8.63;;;384.80;1843.20;;;;;;5053910;28;20032;-68
2021/04/02 05:26:20;;;;;;;15.02;7.45;;;384.80;1868.80;;;;;;5072453;28;20059;-66
2021/04/02 05:28:48;;;;;;;21.30;8.73;;;384.80;1868.80;;;;;;5072200;28;20032;-69
2021/04/02 05:31:15;;;;;;;18.67;11.45;;;384.80;1894.40;;;;;;5054443;28;20350;-70
2021/04/02 05:33:41;;;;;;;17.15;9.00;;;384.80;1894.40;;;;;;5072317;28;20021;-70
2021/04/02 05:36:07;;;;;;;11.43;6.00;;;384.80;1894.40;;;;;;5053928;28;20136;-68
2021/04/02 05:38:33;;;;;;;10.30;5.80;;;384.70;1920.00;;;;;;5072345;28;20040;-70
2021/04/02 05:41:24;;;;;;;15.07;8.27;;;384.60;1945.60;;;;;;5071784;28;20029;-65
2021/04/02 05:43:56;;;;;;;7.85;6.18;;;384.50;1945.60;;;;;;5027314;28;20052;-68
2021/04/02 05:46:25;;;;;;;11.75;6.97;;;384.50;1945.60;;;;;;5071790;28;20056;-69
2021/04/02 05:49:05;;;;;;;11.48;6.82;;;384.40;1971.20;;;;;;5072612;28;20028;-70
2021/04/02 05:51:32;;;;;;;12.27;8.55;;;384.40;1971.20;;;;;;5075328;28;20544;-71
2021/04/02 05:53:59;;;;;;;10.93;7.20;;;384.40;1971.20;;;;;;5075748;28;20035;-66
2021/04/02 05:56:26;;;;;;;9.52;6.40;;;384.40;1996.80;;;;;;5075427;28;20036;-70
2021/04/02 05:58:52;;;;;;;12.23;6.72;;;384.30;1996.80;;;;;;5075798;28;20358;-65
2021/04/02 06:01:18;;;;;;;14.38;9.93;;;384.30;1996.80;;;;;;5075435;28;20446;-69
2021/04/02 06:03:45;;;;;;;11.77;7.38;;;384.40;1971.20;;;;;;5075364;28;20029;-70
2021/04/02 06:06:13;;;;;;;15.57;6.95;;;384.50;1971.20;;;;;;5057570;28;20038;-70
2021/04/02 06:08:46;;;;;;;12.27;6.68;;;384.50;1945.60;;;;;;5075100;28;20027;-64
2021/04/02 06:11:13;;;;;;;11.63;7.68;;;384.70;1945.60;;;;;;5075507;28;20465;-70
2021/04/02 06:13:40;;;;;;;10.45;7.55;;;384.90;1945.60;;;;;;5075024;28;20056;-66
2021/04/02 06:16:06;;;;;;;9.18;6.35;;;409.60;1945.60;;;;;;5075340;28;20024;-71
2021/04/02 06:18:40;;;;;;;11.57;8.20;;;409.70;1920.00;;;;;;5074905;28;20393;-68
2021/04/02 06:21:07;;;;;;;12.18;7.13;;;409.90;1920.00;;;;;;5075237;28;20032;-69
2021/04/02 06:23:35;;;;;;;12.45;8.95;;;410.10;1894.40;;;;;;5075205;28;20033;-66
2021/04/02 06:26:13;;;;;;;14.68;12.30;;;410.10;1894.40;;;;;;5074924;28;20029;-69
2021/04/02 06:28:41;;;;;;;17.70;11.18;;;410.30;1894.40;;;;;;5074935;28;20115;-68
2021/04/02 06:31:17;;;;;;;43.08;34.85;;;410.50;1868.80;;;;;;5071369;28;20025;-70
2021/04/02 06:33:53;;;;;;;19.35;14.15;;;435.30;1843.20;;;;;;5070037;28;20032;-70
2021/04/02 06:36:23;;;;;;;18.65;10.00;;;435.80;1792.00;;;;;;5072718;28;20052;-67
2021/04/02 06:38:54;;;;;;;14.02;7.78;;;487.00;1612.80;;;;;;5074914;28;20070;-70
2021/04/02 06:41:22;;;;;;;14.95;8.60;;;538.20;1433.60;;;;;;5074530;28;20025;-67
2021/04/02 06:43:50;;;;;;;17.30;8.10;;;589.40;1305.60;;;;;;5070895;28;20048;-70
2021/04/02 06:46:20;;;;;;;16.63;8.15;;;640.20;1126.40;;;;;;5074078;28;20210;-65
2021/04/02 06:48:46;;;;;;;19.25;8.35;;;615.10;1152.00;;;;;;5074638;28;20052;-71
2021/04/02 06:51:19;;;;;;;17.55;9.15;;;614.60;1177.60;;;;;;5074735;28;20052;-69
2021/04/02 06:53:48;;;;;;;14.13;8.20;;;589.30;1254.40;;;;;;5057668;28;20025;-67
2021/04/02 06:56:16;;;;;;;15.23;9.75;;;614.90;1177.60;;;;;;5074561;28;20495;-67
2021/04/02 06:58:43;;;;;;;19.73;9.48;;;588.80;1254.40;;;;;;5074425;28;20114;-70
2021/04/02 07:01:13;;;;;;;30.73;16.95;;;563.40;1331.20;;;;;;5074157;28;20017;-66
2021/04/02 07:03:41;;;;;;;26.63;12.63;;;538.10;1382.40;;;;;;5073952;28;20119;-69
2021/04/02 07:06:08;;;;;;;24.63;12.63;;;537.60;1408.00;;;;;;5074391;28;20377;-71
2021/04/02 07:08:36;;;;;;;19.90;11.85;;;537.60;1433.60;;;;;;5073795;28;20031;-70
2021/04/02 07:11:02;;;;;;;35.10;20.85;;;537.60;1408.00;;;;;;5074478;28;20031;-70
2021/04/02 07:13:35;;;;;;;22.77;11.80;;;512.40;1433.60;;;;;;5074095;28;20020;-71
2021/04/02 07:16:02;;;;;;;19.88;11.30;;;512.00;1433.60;;;;;;5074083;28;20036;-71
2021/04/02 07:18:29;;;;;;;18.63;11.15;;;487.20;1459.20;;;;;;5073969;28;20024;-68
2021/04/02 07:20:55;;;;;;;23.05;12.25;;;487.20;1484.80;;;;;;5074185;28;20448;-70
2021/04/02 07:23:21;;;;;;;19.63;12.02;;;487.30;1484.80;;;;;;5073791;28;20036;-68
2021/04/02 07:25:47;;;;;;;19.17;11.32;;;487.30;1484.80;;;;;;5073251;28;20027;-70
2021/04/02 07:28:13;;;;;;;24.58;12.68;;;487.20;1484.80;;;;;;5074101;28;20021;-70
2021/04/02 07:30:43;;;;;;;21.17;12.27;;;487.10;1536.00;;;;;;5073230;28;20052;-71
2021/04/02 07:33:11;;;;;;;19.70;10.85;;;487.00;1536.00;;;;;;5054307;28;20043;-71
2021/04/02 07:35:38;;;;;;;25.05;11.68;;;487.00;1510.40;;;;;;5066022;28;20382;-69
2021/04/02 07:38:09;;;;;;;19.50;12.55;;;487.10;1510.40;;;;;;5086427;28;20449;-65
2021/04/02 07:40:35;;;;;;;22.13;13.20;;;487.20;1536.00;;;;;;5093360;28;20030;-69
2021/04/02 07:43:06;;;;;;;30.30;20.13;;;512.00;1459.20;;;;;;5093433;28;20032;-67
2021/04/02 07:45:35;;;;;;;22.98;12.63;;;512.30;1459.20;;;;;;5089043;28;20046;-68
2021/04/02 07:48:15;;;;;;;18.38;11.32;;;512.30;1484.80;;;;;;5093097;28;20473;-68
2021/04/02 07:50:50;;;;;;;22.45;12.18;;;512.10;1459.20;;;;;;5091470;28;20460;-68
2021/04/02 07:53:24;;;;;;;18.42;12.32;;;487.30;1510.40;;;;;;5089636;28;20066;-69
2021/04/02 07:56:02;;;;;;;19.67;12.30;;;487.20;1510.40;;;;;;5088465;28;20391;-66
2021/04/02 07:58:30;;;;;;;17.85;12.07;;;487.10;1510.40;;;;;;5077638;28;20021;-65
2021/04/02 08:00:58;;;;;;;20.27;12.57;;;487.10;1536.00;;;;;;5073598;28;20085;-69
2021/04/02 08:03:30;;;;;;;21.30;12.68;;;487.10;1536.00;;;;;;5061498;28;20029;-69
2021/04/02 08:06:06;;;;;;;21.70;13.68;;;487.00;1536.00;;;;;;5053502;28;20083;-68
2021/04/02 08:08:46;;;;;;;21.58;13.05;;;486.90;1536.00;;;;;;5052782;28;20017;-67
2021/04/02 08:11:33;;;;;;;22.27;14.18;;;486.80;1510.40;;;;;;5053122;28;20021;-64
2021/04/02 08:14:02;;;;;;;21.05;14.48;;;486.80;1510.40;;;;;;5061826;28;20030;-65
2021/04/02 08:16:31;;;;;;;20.50;13.52;;;486.70;1536.00;;;;;;5072018;28;20487;-69
2021/04/02 08:19:11;;;;;;;26.05;15.60;;;486.70;1536.00;;;;;;5071696;28;20024;-68
2021/04/02 08:21:40;;;;;;;20.95;13.73;;;486.70;1561.60;;;;;;5072030;28;20406;-70
2021/04/02 08:24:08;;;;;;;21.42;13.02;;;486.60;1536.00;;;;;;5072464;28;20031;-70
2021/04/02 08:26:36;;;;;;;19.95;13.43;;;486.50;1536.00;;;;;;5072095;28;20062;-69
2021/04/02 08:29:05;;;;;;;22.63;13.38;;;486.40;1561.60;;;;;;5054833;28;20138;-68
2021/04/02 08:31:33;;;;;;;19.50;13.57;;;486.50;1587.20;;;;;;5072712;28;20103;-68
2021/04/02 08:33:59;;;;;;;20.25;13.55;;;486.70;1561.60;;;;;;5073237;28;20112;-67
2021/04/02 08:36:26;;;;;;;20.63;13.80;;;486.70;1561.60;;;;;;5072400;28;20055;-68
2021/04/02 08:38:54;;;;;;;20.77;13.93;;;486.90;1561.60;;;;;;5072906;28;20031;-69
2021/04/02 08:41:25;;;;;;;18.52;13.77;;;487.00;1561.60;;;;;;5072563;28;20416;-69
2021/04/02 08:43:52;;;;;;;21.90;13.55;;;487.10;1536.00;;;;;;5072976;28;20040;-66
2021/04/02 08:46:31;;;;;;;22.05;13.45;;;487.20;1484.80;;;;;;5072918;28;20538;-69
2021/04/02 08:48:57;;;;;;;21.67;13.82;;;487.30;1484.80;;;;;;5072591;28;20549;-69
2021/04/02 08:51:23;;;;;;;22.95;12.75;;;487.30;1459.20;;;;;;5072919;28;20493;-63
2021/04/02 08:53:49;;;;;;;22.13;14.00;;;512.10;1459.20;;;;;;5072795;28;20028;-68
2021/04/02 08:56:17;;;;;;;21.33;13.57;;;512.10;1433.60;;;;;;5072982;28;20021;-68
2021/04/02 08:58:45;;;;;;;21.33;13.85;;;487.30;1459.20;;;;;;5072037;28;20048;-68
2021/04/02 09:01:16;;;;;;;23.23;13.45;;;512.20;1433.60;;;;;;5072747;28;20099;-67
2021/04/02 09:03:43;;;;;;;20.17;12.68;;;512.30;1433.60;;;;;;5072413;28;20086;-64
2021/04/02 09:06:10;;;;;;;23.20;13.68;;;512.10;1382.40;;;;;;5072888;28;20028;-69
2021/04/02 09:08:36;;;;;;;22.83;12.98;;;512.20;1433.60;;;;;;5072188;28;20310;-68
2021/04/02 09:11:12;;;;;;;23.15;13.77;;;512.20;1408.00;;;;;;5072659;28;20022;-69
2021/04/02 09:13:41;;;;;;;21.88;14.27;;;512.10;1433.60;;;;;;5072619;28;20491;-67
2021/04/02 09:16:09;;;;;;;25.83;13.15;;;487.30;1408.00;;;;;;5054438;28;20350;-68
2021/04/02 09:18:47;;;;;;;23.52;13.27;;;487.20;1459.20;;;;;;5072414;28;20020;-69
2021/04/02 09:21:14;;;;;;;39.13;14.77;;;487.30;1484.80;;;;;;5071828;28;20024;-70
2021/04/02 09:23:40;;;;;;;22.98;12.75;;;512.00;1484.80;;;;;;5074338;28;20051;-70
2021/04/02 09:26:10;;;;;;;25.38;14.57;;;487.30;1433.60;;;;;;5076048;28;20027;-70
2021/04/02 09:28:39;;;;;;;25.33;13.68;;;487.30;1433.60;;;;;;5076148;28;20036;-70
2021/04/02 09:31:24;;;;;;;21.33;13.05;;;512.00;1408.00;;;;;;5075956;28;20024;-70
2021/04/02 09:33:52;;;;;;;28.13;13.85;;;487.30;1433.60;;;;;;5076421;28;20029;-69
2021/04/02 09:36:20;;;;;;;26.67;13.75;;;512.00;1433.60;;;;;;5075685;28;20037;-68
2021/04/02 09:38:47;;;;;;;20.80;13.60;;;487.30;1408.00;;;;;;5075854;28;20031;-67
2021/04/02 09:41:15;;;;;;;27.10;14.68;;;512.00;1433.60;;;;;;5076023;28;20021;-68
2021/04/02 09:43:52;;;;;;;26.98;14.20;;;512.20;1459.20;;;;;;5075803;28;20029;-65
2021/04/02 09:46:30;;;;;;;27.35;15.57;;;512.30;1433.60;;;;;;5076167;28;20021;-64
2021/04/02 09:49:08;;;;;;;33.15;16.35;;;512.30;1408.00;;;;;;5085052;28;20024;-70
2021/04/02 09:51:36;;;;;;;30.27;17.70;;;512.40;1408.00;;;;;;5096371;28;20020;-70
2021/04/02 09:54:02;;;;;;;29.33;18.27;;;512.00;1408.00;;;;;;5095712;28;20021;-70
2021/04/02 09:56:29;;;;;;;24.73;16.50;;;512.20;1433.60;;;;;;5096002;28;20030;-69
2021/04/02 09:58:55;;;;;;;30.80;20.00;;;512.30;1433.60;;;;;;5095449;28;20545;-70
2021/04/02 10:01:21;;;;;;;26.00;16.83;;;512.30;1433.60;;;;;;5077727;28;20477;-70
2021/04/02 10:03:47;;;;;;;25.02;14.95;;;512.40;1408.00;;;;;;5095053;28;20095;-70
2021/04/02 10:06:13;;;;;;;23.92;16.42;;;512.50;1408.00;;;;;;5095767;28;20024;-70
2021/04/02 10:08:39;;;;;;;26.23;16.13;;;512.70;1408.00;;;;;;5077292;28;20478;-70
2021/04/02 10:11:05;;;;;;;31.55;16.80;;;512.70;1382.40;;;;;;5095353;28;20145;-70
2021/04/02 10:13:38;;;;;;;22.38;14.57;;;512.70;1356.80;;;;;;5095921;28;20043;-70
2021/04/02 10:16:05;;;;;;;25.42;16.48;;;512.60;1331.20;;;;;;5095206;28;20019;-70
2021/04/02 10:18:31;;;;;;;27.63;16.05;;;512.70;1356.80;;;;;;5095665;28;20391;-70
2021/04/02 10:20:57;;;;;;;23.70;16.40;;;512.80;1331.20;;;;;;5074322;28;20100;-70
2021/04/02 10:23:23;;;;;;;24.08;15.27;;;512.90;1356.80;;;;;;5055364;28;20041;-70
2021/04/02 10:25:49;;;;;;;24.92;15.15;;;537.60;1382.40;;;;;;5054978;28;20025;-70
2021/04/02 10:28:14;;;;;;;26.58;16.13;;;512.80;1331.20;;;;;;5084307;28;20064;-70
2021/04/02 10:30:41;;;;;;;23.88;15.07;;;512.90;1356.80;;;;;;5079037;28;20025;-70
2021/04/02 10:33:06;;;;;;;22.42;14.90;;;512.90;1331.20;;;;;;5079064;28;20095;-72
2021/04/02 10:35:35;;;;;;;27.35;15.52;;;537.70;1356.80;;;;;;5069646;28;20119;-73
2021/04/02 10:38:02;;;;;;;26.02;14.55;;;537.80;1331.20;;;;;;5084862;28;20040;-72
2021/04/02 10:40:28;;;;;;;28.00;17.65;;;537.60;1331.20;;;;;;5062720;28;20024;-70
2021/04/02 10:42:53;;;;;;;28.83;17.80;;;512.90;1331.20;;;;;;5086556;28;20378;-70
2021/04/02 10:45:20;;;;;;;27.23;17.20;;;512.90;1331.20;;;;;;5093850;28;20107;-71
2021/04/02 10:47:45;;;;;;;23.63;15.25;;;512.80;1305.60;;;;;;5069644;28;20397;-71
2021/04/02 10:50:13;;;;;;;28.67;16.48;;;512.70;1331.20;;;;;;5059871;28;20017;-69
2021/04/02 10:52:42;;;;;;;26.75;15.18;;;512.60;1331.20;;;;;;5054342;28;20070;-70
2021/04/02 10:55:08;;;;;;;25.88;14.93;;;512.60;1356.80;;;;;;5054409;28;20100;-70
2021/04/02 10:57:35;;;;;;;24.40;15.98;;;512.50;1331.20;;;;;;5054895;28;20381;-70
2021/04/02 11:00:03;;;;;;;25.13;16.15;;;512.40;1356.80;;;;;;5065321;28;20447;-70
2021/04/02 11:02:29;;;;;;;24.33;15.65;;;512.50;1356.80;;;;;;5070665;28;20113;-70
2021/04/02 11:04:58;;;;;;;26.17;16.98;;;512.40;1356.80;;;;;;5084544;28;20357;-70
2021/04/02 11:07:24;;;;;;;28.88;17.27;;;512.30;1331.20;;;;;;5093064;28;20042;-69
2021/04/02 11:09:49;;;;;;;29.30;17.80;;;512.40;1356.80;;;;;;5092471;28;20023;-70
2021/04/02 11:12:15;;;;;;;30.75;18.08;;;512.30;1356.80;;;;;;5093080;28;20043;-70
2021/04/02 11:14:41;;;;;;;26.05;16.17;;;512.20;1356.80;;;;;;5092625;28;20105;-69
2021/04/02 11:17:09;;;;;;;24.45;16.27;;;512.20;1356.80;;;;;;5092947;28;20020;-70
2021/04/02 11:19:35;;;;;;;26.83;16.13;;;512.40;1382.40;;;;;;5092431;28;20027;-69
2021/04/02 11:22:01;;;;;;;22.48;15.32;;;512.50;1382.40;;;;;;5087757;28;20397;-70
2021/04/02 11:24:27;;;;;;;22.40;15.38;;;512.70;1356.80;;;;;;5073774;28;20017;-71
2021/04/02 11:26:54;;;;;;;30.58;16.70;;;512.70;1331.20;;;;;;5073585;28;20108;-70
2021/04/02 11:29:20;;;;;;;25.63;15.77;;;512.80;1305.60;;;;;;5074144;28;20025;-70
2021/04/02 11:31:46;;;;;;;23.98;14.90;;;512.80;1305.60;;;;;;5073493;28;20066;-71
2021/04/02 11:34:12;;;;;;;25.83;15.65;;;537.60;1331.20;;;;;;5073878;28;20028;-74
2021/04/02 11:36:40;;;;;;;22.38;14.45;;;537.60;1305.60;;;;;;5073524;28;20043;-70
2021/04/02 11:39:07;;;;;;;25.25;14.77;;;537.70;1280.00;;;;;;5055731;28;20444;-70
2021/04/02 11:41:32;;;;;;;21.98;13.48;;;537.80;1280.00;;;;;;5073600;28;20132;-70
2021/04/02 11:43:58;;;;;;;27.17;14.60;;;537.90;1228.80;;;;;;5073213;28;20482;-72
2021/04/02 11:46:24;;;;;;;29.58;14.50;;;537.90;1228.80;;;;;;5073808;28;20099;-70
2021/04/02 11:48:50;;;;;;;30.33;13.90;;;538.10;1228.80;;;;;;5073098;28;20039;-70
2021/04/02 11:51:16;;;;;;;26.48;13.77;;;538.10;1254.40;;;;;;5073520;28;20024;-70
2021/04/02 11:53:41;;;;;;;29.65;13.93;;;538.30;1228.80;;;;;;5073161;28;20032;-70
2021/04/02 11:56:07;;;;;;;25.45;13.35;;;538.50;1228.80;;;;;;5066552;28;20100;-69
2021/04/02 11:58:33;;;;;;;32.65;12.98;;;563.20;1228.80;;;;;;5053385;28;20059;-70
2021/04/02 12:00:59;;;;;;;25.33;13.00;;;563.20;1177.60;;;;;;5053060;28;20033;-70
2021/04/02 12:03:27;;;;;;;28.60;13.20;;;563.20;1203.20;;;;;;5064666;28;20393;-70
2021/04/02 12:05:53;;;;;;;26.38;13.45;;;563.20;1152.00;;;;;;5071056;28;20028;-70
2021/04/02 12:08:19;;;;;;;23.63;13.75;;;563.20;1152.00;;;;;;5071531;28;20028;-70
2021/04/02 12:10:45;;;;;;;27.42;14.00;;;563.20;1152.00;;;;;;5053029;28;20028;-68